createdAt,value
2018-04-29T00:00:09.905Z,15.90
2018-04-29T00:02:37.460Z,15.80
2018-04-29T00:05:05.000Z,15.80
2018-04-29T00:07:33.297Z,15.60
2018-04-29T00:10:01.302Z,15.60
2018-04-29T00:12:29.298Z,15.50
2018-04-29T00:14:56.795Z,15.50
2018-04-29T00:17:25.084Z,15.50
2018-04-29T00:19:53.364Z,15.60
2018-04-29T00:22:20.992Z,15.60
2018-04-29T00:24:48.735Z,15.70
2018-04-29T00:27:16.277Z,15.80
2018-04-29T00:29:43.790Z,15.80
2018-04-29T00:32:11.346Z,15.80
2018-04-29T00:34:38.832Z,15.90
2018-04-29T00:37:06.367Z,15.90
2018-04-29T00:39:33.950Z,15.80
2018-04-29T00:42:01.469Z,15.80
2018-04-29T00:44:29.026Z,15.80
2018-04-29T00:46:56.530Z,15.80
2018-04-29T00:49:24.076Z,15.80
2018-04-29T00:52:03.634Z,15.70
2018-04-29T00:54:31.217Z,15.60
2018-04-29T00:56:58.716Z,15.50
2018-04-29T00:59:26.222Z,15.40
2018-04-29T01:01:53.752Z,15.30
2018-04-29T01:04:21.273Z,15.20
2018-04-29T01:06:48.794Z,15.10
2018-04-29T01:09:16.516Z,15.00
2018-04-29T01:11:44.811Z,14.80
2018-04-29T01:14:13.096Z,14.80
2018-04-29T01:16:40.626Z,14.80
2018-04-29T01:19:08.138Z,14.80
2018-04-29T01:21:35.873Z,14.70
2018-04-29T01:24:04.156Z,14.70
2018-04-29T01:26:32.479Z,14.60
2018-04-29T01:29:00.134Z,14.60
2018-04-29T01:31:27.735Z,14.60
2018-04-29T01:33:55.472Z,14.60
2018-04-29T01:36:23.012Z,14.60
2018-04-29T01:38:51.315Z,14.80
2018-04-29T01:41:18.825Z,14.70
2018-04-29T01:43:46.369Z,14.80
2018-04-29T01:46:13.881Z,14.80
2018-04-29T01:48:42.184Z,14.90
2018-04-29T01:51:09.711Z,14.90
2018-04-29T01:53:38.014Z,14.90
2018-04-29T01:56:05.559Z,14.90
2018-04-29T01:58:33.832Z,14.90
2018-04-29T02:01:01.334Z,14.90
2018-04-29T02:03:28.858Z,14.90
2018-04-29T02:05:57.131Z,14.90
2018-04-29T02:08:24.734Z,14.90
2018-04-29T02:10:52.269Z,14.80
2018-04-29T02:13:19.771Z,14.80
2018-04-29T02:15:47.979Z,14.60
2018-04-29T02:18:15.468Z,14.50
2018-04-29T02:20:42.980Z,14.50
2018-04-29T02:23:10.485Z,14.50
2018-04-29T02:25:37.988Z,14.40
2018-04-29T02:28:06.875Z,14.40
2018-04-29T02:30:35.157Z,14.40
2018-04-29T02:33:02.699Z,14.40
2018-04-29T02:35:30.212Z,14.30
2018-04-29T02:37:57.770Z,14.30
2018-04-29T02:40:26.055Z,14.30
2018-04-29T02:42:53.573Z,14.20
2018-04-29T02:45:21.851Z,14.10
2018-04-29T02:47:49.355Z,14.20
2018-04-29T02:50:16.999Z,14.10
2018-04-29T02:52:45.441Z,14.10
2018-04-29T02:55:12.971Z,14.10
2018-04-29T02:57:40.452Z,14.00
2018-04-29T03:00:08.094Z,14.10
2018-04-29T03:02:35.626Z,14.10
2018-04-29T03:05:03.195Z,14.20
2018-04-29T03:07:30.773Z,14.30
2018-04-29T03:09:59.131Z,14.50
2018-04-29T03:12:26.944Z,14.50
2018-04-29T03:14:54.619Z,14.60
2018-04-29T03:17:22.957Z,14.50
2018-04-29T03:19:50.515Z,14.40
2018-04-29T03:22:18.017Z,14.40
2018-04-29T03:24:45.575Z,14.20
2018-04-29T03:27:14.009Z,14.10
2018-04-29T03:29:41.539Z,14.00
2018-04-29T03:32:09.105Z,14.00
2018-04-29T03:34:36.821Z,13.90
2018-04-29T03:37:04.357Z,13.80
2018-04-29T03:39:31.859Z,13.80
2018-04-29T03:42:00.319Z,13.70
2018-04-29T03:44:27.833Z,13.70
2018-04-29T03:46:55.344Z,13.60
2018-04-29T03:49:22.911Z,13.60
2018-04-29T03:51:50.505Z,13.50
2018-04-29T03:54:18.773Z,13.50
2018-04-29T03:56:47.137Z,13.50
2018-04-29T03:59:27.383Z,13.60
2018-04-29T04:02:06.700Z,13.60
2018-04-29T04:04:34.211Z,13.60
2018-04-29T04:07:01.725Z,13.60
2018-04-29T04:09:29.220Z,13.60
2018-04-29T04:11:58.228Z,13.60
2018-04-29T04:14:25.724Z,13.60
2018-04-29T04:16:53.236Z,13.70
2018-04-29T04:19:20.778Z,13.80
2018-04-29T04:21:48.297Z,13.90
2018-04-29T04:24:16.572Z,14.10
2018-04-29T04:26:45.913Z,14.00
2018-04-29T04:29:13.406Z,14.10
2018-04-29T04:31:40.967Z,14.20
2018-04-29T04:34:08.516Z,14.30
2018-04-29T04:36:36.129Z,14.40
2018-04-29T04:39:03.791Z,14.40
2018-04-29T04:41:31.284Z,14.50
2018-04-29T04:43:58.805Z,14.50
2018-04-29T04:46:26.357Z,14.50
2018-04-29T04:48:53.875Z,14.50
2018-04-29T04:51:21.375Z,14.50
2018-04-29T04:53:48.882Z,14.50
2018-04-29T04:56:17.169Z,14.60
2018-04-29T04:58:45.456Z,14.60
2018-04-29T05:01:13.758Z,14.70
2018-04-29T05:03:41.252Z,14.60
2018-04-29T05:06:08.784Z,14.70
2018-04-29T05:08:36.288Z,14.70
2018-04-29T05:11:03.794Z,14.80
2018-04-29T05:13:32.058Z,14.90
2018-04-29T05:16:00.335Z,15.10
2018-04-29T05:18:28.612Z,15.70
2018-04-29T05:20:56.958Z,16.50
2018-04-29T05:23:24.483Z,16.40
2018-04-29T05:25:52.812Z,18.00
2018-04-29T05:28:20.327Z,17.90
2018-04-29T05:30:48.596Z,18.90
2018-04-29T05:33:17.265Z,19.20
2018-04-29T05:35:44.774Z,19.20
2018-04-29T05:38:12.341Z,19.50
2018-04-29T05:40:39.885Z,19.70
2018-04-29T05:43:10.247Z,20.10
2018-04-29T05:45:37.751Z,20.10
2018-04-29T05:48:05.273Z,20.30
2018-04-29T05:50:32.893Z,20.30
2018-04-29T05:53:01.191Z,20.60
2018-04-29T05:55:29.669Z,20.60
2018-04-29T05:57:57.956Z,20.90
2018-04-29T06:00:26.297Z,21.00
2018-04-29T06:02:53.777Z,21.00
2018-04-29T06:05:21.293Z,21.20
2018-04-29T06:07:49.014Z,21.20
2018-04-29T06:10:17.242Z,21.00
2018-04-29T06:12:44.784Z,20.80
2018-04-29T06:15:12.292Z,20.50
2018-04-29T06:17:39.904Z,20.30
2018-04-29T06:20:08.238Z,20.20
2018-04-29T06:22:35.768Z,20.20
2018-04-29T06:25:03.300Z,20.30
2018-04-29T06:27:31.579Z,20.80
2018-04-29T06:30:01.000Z,20.80
2018-04-29T06:32:29.474Z,21.10
2018-04-29T06:34:57.792Z,21.10
2018-04-29T06:37:25.296Z,21.00
2018-04-29T06:39:53.768Z,20.90
2018-04-29T06:42:21.384Z,21.00
2018-04-29T06:44:48.886Z,21.30
2018-04-29T06:47:16.402Z,21.50
2018-04-29T06:49:44.693Z,21.80
2018-04-29T06:52:12.998Z,21.70
2018-04-29T06:54:41.376Z,21.70
2018-04-29T06:57:08.894Z,21.90
2018-04-29T06:59:37.174Z,22.30
2018-04-29T07:02:04.694Z,22.20
2018-04-29T07:04:32.213Z,22.30
2018-04-29T07:07:00.527Z,21.90
2018-04-29T07:09:28.047Z,21.90
2018-04-29T07:11:56.275Z,21.90
2018-04-29T07:14:23.774Z,21.80
2018-04-29T07:16:51.284Z,21.70
2018-04-29T07:19:18.813Z,21.40
2018-04-29T07:21:47.832Z,21.10
2018-04-29T07:24:16.111Z,21.00
2018-04-29T07:26:44.400Z,21.10
2018-04-29T07:29:12.697Z,21.20
2018-04-29T07:31:40.227Z,21.20
2018-04-29T07:34:07.759Z,21.40
2018-04-29T07:36:35.290Z,21.60
2018-04-29T07:39:02.883Z,21.70
2018-04-29T07:41:30.409Z,21.90
2018-04-29T07:43:59.100Z,22.20
2018-04-29T07:46:26.708Z,22.20
2018-04-29T07:48:54.339Z,22.40
2018-04-29T07:51:21.867Z,22.60
2018-04-29T07:53:49.410Z,22.60
2018-04-29T07:56:16.914Z,22.40
2018-04-29T07:58:45.197Z,22.20
2018-04-29T08:01:12.714Z,22.20
2018-04-29T08:03:40.253Z,22.20
2018-04-29T08:06:07.783Z,22.30
2018-04-29T08:08:38.887Z,22.80
2018-04-29T08:11:06.378Z,22.70
2018-04-29T08:13:33.913Z,23.00
2018-04-29T08:16:01.413Z,23.10
2018-04-29T08:18:29.671Z,22.70
2018-04-29T08:20:57.987Z,22.70
2018-04-29T08:23:25.548Z,22.70
2018-04-29T08:25:53.841Z,22.70
2018-04-29T08:28:21.350Z,22.60
2018-04-29T08:30:48.885Z,22.60
2018-04-29T08:33:16.393Z,22.60
2018-04-29T08:35:44.022Z,22.60
2018-04-29T08:38:12.225Z,22.50
2018-04-29T08:40:39.788Z,22.00
2018-04-29T08:43:07.323Z,21.50
2018-04-29T08:45:38.639Z,21.30
2018-04-29T08:48:06.201Z,21.20
2018-04-29T08:50:33.824Z,20.90
2018-04-29T08:53:01.350Z,20.90
2018-04-29T08:55:28.861Z,20.80
2018-04-29T08:57:56.416Z,21.00
2018-04-29T09:00:23.894Z,21.40
2018-04-29T09:02:51.436Z,21.90
2018-04-29T09:05:18.974Z,22.00
2018-04-29T09:07:46.508Z,21.90
2018-04-29T09:10:14.922Z,21.40
2018-04-29T09:12:42.538Z,21.30
2018-04-29T09:15:10.144Z,21.10
2018-04-29T09:17:37.674Z,20.80
2018-04-29T09:20:05.973Z,20.80
2018-04-29T09:22:33.528Z,20.80
2018-04-29T09:25:01.869Z,20.80
2018-04-29T09:27:29.352Z,20.80
2018-04-29T09:29:57.097Z,20.90
2018-04-29T09:32:24.611Z,20.90
2018-04-29T09:34:52.905Z,21.00
2018-04-29T09:37:21.201Z,20.90
2018-04-29T09:39:48.729Z,20.90
2018-04-29T09:42:16.269Z,20.90
2018-04-29T09:44:43.830Z,20.90
2018-04-29T09:47:11.521Z,21.00
2018-04-29T09:49:39.861Z,21.00
2018-04-29T09:52:07.566Z,21.00
2018-04-29T09:54:35.387Z,21.10
2018-04-29T09:57:02.916Z,21.10
2018-04-29T09:59:31.361Z,21.10
2018-04-29T10:02:02.874Z,21.10
2018-04-29T10:04:30.448Z,21.10
2018-04-29T10:06:58.062Z,21.00
2018-04-29T10:09:26.541Z,21.10
2018-04-29T10:11:54.278Z,21.00
2018-04-29T10:14:21.876Z,21.00
2018-04-29T10:16:49.367Z,21.00
2018-04-29T10:19:17.706Z,21.00
2018-04-29T10:21:45.206Z,21.00
2018-04-29T10:24:13.866Z,21.10
2018-04-29T10:26:42.641Z,21.10
2018-04-29T10:29:10.200Z,21.20
2018-04-29T10:31:39.293Z,21.30
2018-04-29T10:34:06.822Z,21.40
2018-04-29T10:36:35.103Z,21.60
2018-04-29T10:39:04.375Z,21.70
2018-04-29T10:41:31.875Z,21.70
2018-04-29T10:44:00.185Z,21.80
2018-04-29T10:46:27.740Z,21.80
2018-04-29T10:49:02.823Z,21.80
2018-04-29T10:51:30.377Z,22.00
2018-04-29T10:53:59.368Z,22.10
2018-04-29T10:56:26.892Z,22.10
2018-04-29T10:58:54.399Z,22.20
2018-04-29T11:01:22.013Z,22.20
2018-04-29T11:03:50.302Z,22.20
2018-04-29T11:06:17.896Z,22.30
2018-04-29T11:08:46.167Z,22.20
2018-04-29T11:11:13.693Z,22.30
2018-04-29T11:13:41.981Z,22.40
2018-04-29T11:16:10.285Z,22.40
2018-04-29T11:18:37.861Z,22.40
2018-04-29T11:21:05.458Z,22.50
2018-04-29T11:23:33.080Z,22.50
2018-04-29T11:26:00.662Z,22.50
2018-04-29T11:28:28.229Z,22.60
2018-04-29T11:30:57.936Z,22.50
2018-04-29T11:33:25.424Z,22.50
2018-04-29T11:35:52.948Z,22.50
2018-04-29T11:38:20.470Z,22.60
2018-04-29T11:40:48.793Z,22.70
2018-04-29T11:43:16.344Z,22.70
2018-04-29T11:45:43.869Z,22.60
2018-04-29T11:48:11.390Z,22.60
2018-04-29T11:50:38.884Z,22.60
2018-04-29T11:53:06.478Z,22.70
2018-04-29T11:55:34.039Z,22.60
2018-04-29T11:58:01.622Z,22.70
2018-04-29T12:00:29.918Z,22.80
2018-04-29T12:02:57.644Z,22.80
2018-04-29T12:05:25.195Z,22.90
2018-04-29T12:07:52.696Z,22.90
2018-04-29T12:10:20.998Z,23.30
2018-04-29T12:12:48.528Z,23.30
2018-04-29T12:15:17.358Z,23.40
2018-04-29T12:17:45.006Z,23.40
2018-04-29T12:20:12.800Z,23.30
2018-04-29T12:22:40.364Z,23.30
2018-04-29T12:25:07.879Z,23.30
2018-04-29T12:27:35.392Z,23.30
2018-04-29T12:30:02.929Z,23.30
2018-04-29T12:32:31.206Z,23.20
2018-04-29T12:34:59.174Z,23.20
2018-04-29T12:37:26.684Z,23.20
2018-04-29T12:39:54.226Z,23.30
2018-04-29T12:42:25.001Z,23.50
2018-04-29T12:44:52.488Z,23.50
2018-04-29T12:47:20.764Z,23.50
2018-04-29T12:49:48.318Z,23.50
2018-04-29T12:52:16.203Z,23.60
2018-04-29T12:54:43.871Z,23.60
2018-04-29T12:57:11.400Z,23.70
2018-04-29T12:59:39.508Z,23.60
2018-04-29T13:02:07.997Z,23.60
2018-04-29T13:04:35.606Z,23.60
2018-04-29T13:07:03.206Z,23.60
2018-04-29T13:09:30.733Z,23.70
2018-04-29T13:11:58.290Z,23.70
2018-04-29T13:14:25.836Z,23.80
2018-04-29T13:16:59.858Z,23.80
2018-04-29T13:19:27.496Z,23.80
2018-04-29T13:21:55.114Z,23.80
2018-04-29T13:24:24.684Z,23.90
2018-04-29T13:26:53.042Z,23.80
2018-04-29T13:29:20.554Z,23.80
2018-04-29T13:31:50.512Z,23.80
2018-04-29T13:34:18.023Z,23.70
2018-04-29T13:36:49.861Z,23.70
2018-04-29T13:39:18.163Z,23.80
2018-04-29T13:41:45.714Z,23.80
2018-04-29T13:44:14.169Z,24.00
2018-04-29T13:46:41.839Z,24.00
2018-04-29T13:49:09.426Z,24.00
2018-04-29T13:51:39.128Z,23.90
2018-04-29T13:54:07.504Z,23.90
2018-04-29T13:56:35.045Z,23.90
2018-04-29T13:59:02.529Z,24.00
2018-04-29T14:01:30.073Z,24.00
2018-04-29T14:03:57.602Z,23.90
2018-04-29T14:06:25.896Z,23.80
2018-04-29T14:08:53.469Z,23.80
2018-04-29T14:11:20.994Z,23.80
2018-04-29T14:13:49.410Z,23.70
2018-04-29T14:16:17.587Z,23.70
2018-04-29T14:18:45.096Z,23.70
2018-04-29T14:21:12.789Z,23.60
2018-04-29T14:23:41.083Z,23.70
2018-04-29T14:26:09.354Z,23.80
2018-04-29T14:28:37.661Z,23.80
2018-04-29T14:31:05.163Z,23.80
2018-04-29T14:33:32.661Z,23.80
2018-04-29T14:36:00.969Z,23.70
2018-04-29T14:38:28.467Z,23.70
2018-04-29T14:40:55.975Z,23.70
2018-04-29T14:43:24.236Z,23.70
2018-04-29T14:45:52.629Z,23.60
2018-04-29T14:48:20.872Z,23.50
2018-04-29T14:50:48.404Z,23.50
2018-04-29T14:53:15.974Z,23.60
2018-04-29T14:55:43.469Z,23.50
2018-04-29T14:58:10.973Z,23.50
2018-04-29T15:00:39.620Z,23.40
2018-04-29T15:03:07.139Z,23.40
2018-04-29T15:05:38.122Z,23.40
2018-04-29T15:08:06.433Z,23.40
2018-04-29T15:10:33.994Z,23.40
2018-04-29T15:13:01.665Z,23.40
2018-04-29T15:15:29.941Z,23.30
2018-04-29T15:17:58.741Z,23.20
2018-04-29T15:20:27.453Z,23.30
2018-04-29T15:22:56.731Z,23.30
2018-04-29T15:25:24.314Z,23.30
2018-04-29T15:27:52.596Z,23.30
2018-04-29T15:30:21.590Z,23.30
2018-04-29T15:32:49.969Z,23.30
2018-04-29T15:35:17.659Z,23.20
2018-04-29T15:37:45.678Z,23.20
2018-04-29T15:40:13.327Z,23.20
2018-04-29T15:42:41.005Z,23.10
2018-04-29T15:45:08.565Z,23.10
2018-04-29T15:47:36.151Z,23.10
2018-04-29T15:50:03.666Z,23.10
2018-04-29T15:52:31.905Z,23.10
2018-04-29T15:55:00.179Z,23.10
2018-04-29T15:57:28.544Z,23.10
2018-04-29T15:59:56.223Z,23.10
2018-04-29T16:02:24.571Z,23.10
2018-04-29T16:04:52.671Z,23.10
2018-04-29T16:07:20.242Z,23.00
2018-04-29T16:09:47.835Z,23.00
2018-04-29T16:12:16.679Z,23.00
2018-04-29T16:14:44.200Z,23.00
2018-04-29T16:17:12.553Z,23.00
2018-04-29T16:19:40.069Z,23.00
2018-04-29T16:22:07.627Z,22.90
2018-04-29T16:24:35.139Z,22.90
2018-04-29T16:27:02.739Z,22.90
2018-04-29T16:29:30.547Z,22.80
2018-04-29T16:31:58.906Z,22.80
2018-04-29T16:34:26.419Z,22.70
2018-04-29T16:36:53.955Z,22.80
2018-04-29T16:39:21.816Z,22.70
2018-04-29T16:41:49.367Z,22.70
2018-04-29T16:44:17.016Z,22.70
2018-04-29T16:46:45.431Z,22.70
2018-04-29T16:49:12.925Z,22.60
2018-04-29T16:51:40.426Z,22.60
2018-04-29T16:54:09.435Z,22.60
2018-04-29T16:56:38.290Z,22.60
2018-04-29T16:59:06.032Z,22.50
2018-04-29T17:01:33.590Z,22.50
2018-04-29T17:04:01.126Z,22.50
2018-04-29T17:06:28.643Z,22.40
2018-04-29T17:08:56.214Z,22.40
2018-04-29T17:11:23.736Z,22.30
2018-04-29T17:13:51.387Z,22.30
2018-04-29T17:16:18.926Z,22.30
2018-04-29T17:18:46.421Z,22.30
2018-04-29T17:21:14.793Z,22.30
2018-04-29T17:23:43.491Z,22.20
2018-04-29T17:26:11.166Z,22.10
2018-04-29T17:28:38.852Z,22.10
2018-04-29T17:31:06.392Z,22.10
2018-04-29T17:33:33.914Z,22.10
2018-04-29T17:36:01.427Z,22.00
2018-04-29T17:38:28.949Z,22.00
2018-04-29T17:40:56.466Z,21.90
2018-04-29T17:43:24.107Z,21.80
2018-04-29T17:45:51.663Z,21.80
2018-04-29T17:48:19.980Z,21.60
2018-04-29T17:50:47.477Z,21.60
2018-04-29T17:53:14.999Z,21.60
2018-04-29T17:55:42.495Z,21.60
2018-04-29T17:58:10.037Z,21.50
2018-04-29T18:00:37.549Z,21.50
2018-04-29T18:03:06.572Z,21.30
2018-04-29T18:05:34.669Z,21.30
2018-04-29T18:08:02.203Z,21.30
2018-04-29T18:10:29.709Z,21.30
2018-04-29T18:12:57.329Z,21.20
2018-04-29T18:15:25.677Z,21.10
2018-04-29T18:17:53.155Z,21.10
2018-04-29T18:20:21.435Z,21.00
2018-04-29T18:22:52.059Z,20.80
2018-04-29T18:25:21.164Z,20.80
2018-04-29T18:27:48.865Z,20.80
2018-04-29T18:30:16.384Z,20.80
2018-04-29T18:32:44.411Z,20.70
2018-04-29T18:35:12.157Z,20.60
2018-04-29T18:37:40.439Z,20.60
2018-04-29T18:40:08.740Z,20.50
2018-04-29T18:42:40.283Z,20.50
2018-04-29T18:45:08.729Z,20.40
2018-04-29T18:47:37.046Z,20.40
2018-04-29T18:50:05.339Z,20.40
2018-04-29T18:52:32.905Z,20.40
2018-04-29T18:55:00.839Z,20.30
2018-04-29T18:57:28.897Z,20.20
2018-04-29T18:59:56.602Z,20.20
2018-04-29T19:02:24.031Z,20.20
2018-04-29T19:04:51.607Z,20.10
2018-04-29T19:07:20.732Z,20.00
2018-04-29T19:09:49.109Z,19.90
2018-04-29T19:12:17.367Z,19.90
2018-04-29T19:14:44.907Z,19.90
2018-04-29T19:17:13.154Z,19.80
2018-04-29T19:19:41.424Z,19.80
2018-04-29T19:22:09.779Z,19.70
2018-04-29T19:24:38.147Z,19.70
2018-04-29T19:27:05.773Z,19.60
2018-04-29T19:29:33.336Z,19.60
2018-04-29T19:32:00.864Z,19.50
2018-04-29T19:34:28.609Z,19.50
2018-04-29T19:36:56.131Z,19.40
2018-04-29T19:39:23.663Z,19.30
2018-04-29T19:41:51.943Z,19.20
2018-04-29T19:44:20.221Z,19.20
2018-04-29T19:46:48.517Z,19.10
2018-04-29T19:49:16.789Z,19.10
2018-04-29T19:51:45.079Z,19.10
2018-04-29T19:54:13.559Z,19.00
2018-04-29T19:56:41.860Z,19.00
2018-04-29T19:59:09.385Z,18.90
2018-04-29T20:01:37.043Z,18.90
2018-04-29T20:04:04.583Z,18.80
2018-04-29T20:06:32.109Z,18.80
2018-04-29T20:08:59.648Z,18.80
2018-04-29T20:11:28.136Z,18.80
2018-04-29T20:13:55.691Z,18.80
2018-04-29T20:16:23.299Z,18.70
2018-04-29T20:18:50.808Z,18.70
2018-04-29T20:21:18.334Z,18.70
2018-04-29T20:23:45.921Z,18.70
2018-04-29T20:26:14.124Z,18.60
2018-04-29T20:28:41.699Z,18.60
2018-04-29T20:31:09.226Z,18.60
2018-04-29T20:33:36.769Z,18.50
2018-04-29T20:36:04.385Z,18.50
2018-04-29T20:38:31.943Z,18.50
2018-04-29T20:40:59.537Z,18.50
2018-04-29T20:43:27.840Z,18.40
2018-04-29T20:45:55.428Z,18.40
2018-04-29T20:48:23.026Z,18.30
2018-04-29T20:50:50.602Z,18.20
2018-04-29T20:53:18.899Z,18.20
2018-04-29T20:55:46.428Z,18.10
2018-04-29T20:58:14.421Z,18.10
2018-04-29T21:00:42.027Z,18.10
2018-04-29T21:03:09.505Z,18.00
2018-04-29T21:05:37.051Z,18.00
2018-04-29T21:08:05.693Z,17.90
2018-04-29T21:10:33.452Z,17.90
2018-04-29T21:13:00.979Z,17.90
2018-04-29T21:15:28.757Z,17.80
2018-04-29T21:17:56.643Z,17.80
2018-04-29T21:20:27.163Z,17.80
2018-04-29T21:22:56.269Z,17.70
2018-04-29T21:25:24.104Z,17.70
2018-04-29T21:27:51.758Z,17.70
2018-04-29T21:30:19.434Z,17.60
2018-04-29T21:32:46.957Z,17.60
2018-04-29T21:35:14.515Z,17.50
2018-04-29T21:37:42.078Z,17.50
2018-04-29T21:40:09.631Z,17.50
2018-04-29T21:42:37.197Z,17.40
2018-04-29T21:45:04.683Z,17.40
2018-04-29T21:47:32.389Z,17.40
2018-04-29T21:49:59.949Z,17.30
2018-04-29T21:52:28.255Z,17.30
2018-04-29T21:54:55.793Z,17.30
2018-04-29T21:57:24.050Z,17.20
2018-04-29T21:59:52.422Z,17.20
2018-04-29T22:02:20.848Z,17.20
2018-04-29T22:04:48.363Z,17.10
2018-04-29T22:07:15.992Z,17.10
2018-04-29T22:09:43.649Z,17.10
2018-04-29T22:12:11.160Z,17.00
2018-04-29T22:14:38.753Z,17.00
2018-04-29T22:17:07.217Z,16.90
2018-04-29T22:19:36.245Z,16.90
2018-04-29T22:22:04.601Z,16.90
2018-04-29T22:24:32.884Z,16.90
2018-04-29T22:27:00.412Z,16.80
2018-04-29T22:29:27.949Z,16.80
2018-04-29T22:31:55.456Z,16.80
2018-04-29T22:34:22.972Z,16.80
2018-04-29T22:36:51.242Z,16.80
2018-04-29T22:39:18.921Z,16.70
2018-04-29T22:41:46.448Z,16.70
2018-04-29T22:44:14.059Z,16.70
2018-04-29T22:46:41.620Z,16.70
2018-04-29T22:49:09.154Z,16.70
2018-04-29T22:51:37.470Z,16.60
2018-04-29T22:54:04.999Z,16.60
2018-04-29T22:56:32.700Z,16.60
2018-04-29T22:59:00.217Z,16.60
2018-04-29T23:01:27.747Z,16.50
2018-04-29T23:03:55.489Z,16.50
2018-04-29T23:06:23.633Z,16.40
2018-04-29T23:08:51.244Z,16.40
2018-04-29T23:11:18.772Z,16.40
2018-04-29T23:13:47.128Z,16.40
2018-04-29T23:16:14.624Z,16.30
2018-04-29T23:18:42.938Z,16.30
2018-04-29T23:21:10.453Z,16.30
2018-04-29T23:23:38.778Z,16.30
2018-04-29T23:26:06.281Z,16.30
2018-04-29T23:28:33.807Z,16.30
2018-04-29T23:31:01.327Z,16.30
2018-04-29T23:33:29.606Z,16.30
2018-04-29T23:35:57.881Z,16.20
2018-04-29T23:38:25.406Z,16.20
2018-04-29T23:40:52.936Z,16.20
2018-04-29T23:43:21.208Z,16.20
2018-04-29T23:45:49.494Z,16.10
2018-04-29T23:48:17.015Z,16.10
2018-04-29T23:50:44.499Z,16.10
2018-04-29T23:53:12.785Z,16.10
2018-04-29T23:55:40.420Z,16.00
2018-04-29T23:58:07.910Z,16.10
